sensor_id;sensor_type;location;lat;lon;timestamp;P1;durP1;ratioP1;P2;durP2;ratioP2
43877;SDS011;29815;48.184;11.268;2023-04-12T00:00:37;5.18;;;3.47;;
43877;SDS011;29815;48.184;11.268;2023-04-12T00:03:07;5.80;;;4.10;;
43877;SDS011;29815;48.184;11.268;2023-04-12T00:05:37;8.63;;;3.50;;
43877;SDS011;29815;48.184;11.268;2023-04-12T00:08:07;7.25;;;3.47;;
43877;SDS011;29815;48.184;11.268;2023-04-12T00:10:38;4.75;;;3.10;;
43877;SDS011;29815;48.184;11.268;2023-04-12T00:13:08;6.95;;;3.50;;
43877;SDS011;29815;48.184;11.268;2023-04-12T00:15:38;4.90;;;2.55;;
43877;SDS011;29815;48.184;11.268;2023-04-12T00:18:07;7.45;;;3.25;;
43877;SDS011;29815;48.184;11.268;2023-04-12T00:20:37;5.25;;;2.58;;
43877;SDS011;29815;48.184;11.268;2023-04-12T00:23:07;9.65;;;3.17;;
43877;SDS011;29815;48.184;11.268;2023-04-12T00:25:40;4.85;;;2.85;;
43877;SDS011;29815;48.184;11.268;2023-04-12T00:28:10;6.97;;;2.30;;
43877;SDS011;29815;48.184;11.268;2023-04-12T00:30:39;6.28;;;2.30;;
43877;SDS011;29815;48.184;11.268;2023-04-12T00:33:09;4.70;;;2.20;;
43877;SDS011;29815;48.184;11.268;2023-04-12T00:35:39;4.40;;;2.15;;
43877;SDS011;29815;48.184;11.268;2023-04-12T00:38:09;4.93;;;1.75;;
43877;SDS011;29815;48.184;11.268;2023-04-12T00:40:41;6.38;;;2.33;;
43877;SDS011;29815;48.184;11.268;2023-04-12T00:43:11;2.83;;;1.75;;
43877;SDS011;29815;48.184;11.268;2023-04-12T00:45:46;4.63;;;2.13;;
43877;SDS011;29815;48.184;11.268;2023-04-12T00:48:16;5.30;;;2.10;;
43877;SDS011;29815;48.184;11.268;2023-04-12T00:50:45;4.65;;;2.20;;
43877;SDS011;29815;48.184;11.268;2023-04-12T00:53:16;5.05;;;2.63;;
43877;SDS011;29815;48.184;11.268;2023-04-12T00:55:49;5.78;;;2.15;;
43877;SDS011;29815;48.184;11.268;2023-04-12T00:58:21;3.30;;;1.90;;
43877;SDS011;29815;48.184;11.268;2023-04-12T01:00:52;4.57;;;1.92;;
43877;SDS011;29815;48.184;11.268;2023-04-12T01:03:23;4.47;;;1.65;;
43877;SDS011;29815;48.184;11.268;2023-04-12T01:06:03;3.85;;;1.90;;
43877;SDS011;29815;48.184;11.268;2023-04-12T01:08:51;4.50;;;2.20;;
43877;SDS011;29815;48.184;11.268;2023-04-12T01:11:35;3.80;;;1.80;;
43877;SDS011;29815;48.184;11.268;2023-04-12T01:14:13;6.35;;;2.28;;
43877;SDS011;29815;48.184;11.268;2023-04-12T01:16:53;3.10;;;2.55;;
43877;SDS011;29815;48.184;11.268;2023-04-12T01:19:32;3.58;;;2.03;;
43877;SDS011;29815;48.184;11.268;2023-04-12T01:22:35;3.90;;;2.60;;
43877;SDS011;29815;48.184;11.268;2023-04-12T01:25:44;5.72;;;2.08;;
43877;SDS011;29815;48.184;11.268;2023-04-12T01:28:41;4.53;;;1.95;;
43877;SDS011;29815;48.184;11.268;2023-04-12T01:33:43;4.53;;;1.92;;
43877;SDS011;29815;48.184;11.268;2023-04-12T01:36:17;4.22;;;2.45;;
43877;SDS011;29815;48.184;11.268;2023-04-12T01:38:50;6.90;;;2.75;;
43877;SDS011;29815;48.184;11.268;2023-04-12T01:41:22;5.88;;;2.47;;
43877;SDS011;29815;48.184;11.268;2023-04-12T01:43:53;4.22;;;2.42;;
43877;SDS011;29815;48.184;11.268;2023-04-12T01:46:23;7.50;;;2.80;;
43877;SDS011;29815;48.184;11.268;2023-04-12T01:48:53;5.85;;;2.35;;
43877;SDS011;29815;48.184;11.268;2023-04-12T01:51:26;6.65;;;2.63;;
43877;SDS011;29815;48.184;11.268;2023-04-12T01:54:10;5.07;;;2.00;;
43877;SDS011;29815;48.184;11.268;2023-04-12T01:56:48;5.20;;;2.28;;
43877;SDS011;29815;48.184;11.268;2023-04-12T01:59:27;3.72;;;2.00;;
43877;SDS011;29815;48.184;11.268;2023-04-12T02:02:04;5.18;;;2.42;;
43877;SDS011;29815;48.184;11.268;2023-04-12T02:04:34;3.65;;;2.10;;
43877;SDS011;29815;48.184;11.268;2023-04-12T02:07:05;3.53;;;2.05;;
43877;SDS011;29815;48.184;11.268;2023-04-12T02:09:35;5.88;;;2.15;;
